Terminal Aerodrome Forecast
Issued by NWS Cleveland, OH

Home | Current Version | Previous Version | Text Only | Print | Product List | Glossary On
Versions: 1 2 3 4 5 6 7 8 9 10 11 12 13 14 15 16
199
FTUS41 KCLE 011229 AAA
TAFTOL
TAF AMD
KTOL 011229Z 0112/0212 06005KT 1SM -DZ BR OVC002
      TEMPO 0114/0117 2SM BR OVC005
     FM011800 06006KT 3SM BR OVC007
      TEMPO 0121/0201 OVC010
     FM020200 36007KT 2SM BR OVC004=

USA.gov is the U.S. government's official web portal to all federal, state and local government web resources and services.